Time;durP1;ratioP1;P1;durP2;ratioP2;P2;SDS_P1;SDS_P2;PMS_P1;PMS_P2;Temp;Humidity;BMP_temperature;BMP_pressure;BME280_temperature;BME280_humidity;BME280_pressure;Samples;Min_cycle;Max_cycle;Signal;HPM_P1;HPM_P2
2022/10/07 00:00:45;;;;;;;29.23;4.35;;;;;;;10.25;90.17;102467.41;6193217;23;20012;-72
2022/10/07 00:03:10;;;;;;;16.48;3.90;;;;;;;10.11;90.66;102467.56;6193126;23;20005;-72
2022/10/07 00:05:36;;;;;;;23.52;3.65;;;;;;;10.13;90.82;102466.44;6194355;23;20005;-72
2022/10/07 00:08:01;;;;;;;22.60;4.15;;;;;;;10.03;90.75;102471.69;6192920;23;20015;-72
2022/10/07 00:10:26;;;;;;;17.30;4.13;;;;;;;9.91;91.74;102456.41;6192799;23;20033;-72
2022/10/07 00:12:52;;;;;;;17.48;3.75;;;;;;;9.74;92.17;102454.06;6192790;23;20008;-72
2022/10/07 00:15:18;;;;;;;18.05;3.53;;;;;;;9.68;92.44;102449.13;6193986;23;19994;-72
2022/10/07 00:17:44;;;;;;;17.45;3.78;;;;;;;9.68;92.84;102457.22;6193050;23;20012;-73
2022/10/07 00:20:09;;;;;;;22.10;3.22;;;;;;;9.67;92.68;102452.81;6194452;23;20387;-72
2022/10/07 00:22:35;;;;;;;30.73;3.63;;;;;;;9.49;93.50;102455.88;6194096;23;20011;-72
2022/10/07 00:25:00;;;;;;;22.88;4.05;;;;;;;9.38;93.87;102447.69;6193551;23;20019;-72
2022/10/07 00:27:25;;;;;;;26.58;3.03;;;;;;;9.43;93.78;102450.06;6194236;23;20001;-72
2022/10/07 00:29:51;;;;;;;24.33;3.78;;;;;;;9.15;95.05;102443.09;6192732;23;20028;-72
2022/10/07 00:32:16;;;;;;;25.90;3.65;;;;;;;9.16;95.49;102447.53;6192588;23;20028;-72
2022/10/07 00:34:41;;;;;;;25.55;4.03;;;;;;;9.13;95.49;102442.34;6192973;23;19997;-72
2022/10/07 00:37:07;;;;;;;16.88;3.83;;;;;;;8.99;95.96;102437.91;6192346;23;20012;-72
2022/10/07 00:39:32;;;;;;;13.45;3.53;;;;;;;8.93;96.48;102441.94;6195021;23;20035;-72
2022/10/07 00:41:57;;;;;;;24.55;4.00;;;;;;;8.87;96.74;102442.38;6192686;23;20047;-72
2022/10/07 00:44:42;;;;;;;22.98;3.90;;;;;;;8.81;97.14;102426.59;6194808;23;20067;-72
2022/10/07 00:47:28;;;;;;;15.98;3.20;;;;;;;8.81;97.37;102421.19;6193331;23;20001;-72
2022/10/07 00:50:03;;;;;;;13.13;3.58;;;;;;;8.80;97.14;102419.47;6195249;23;20005;-72
2022/10/07 00:52:33;;;;;;;17.23;4.07;;;;;;;8.80;97.51;102419.47;6194750;23;20067;-72
2022/10/07 00:55:03;;;;;;;15.85;3.17;;;;;;;8.83;97.36;102419.25;6196151;23;20071;-72
2022/10/07 00:57:30;;;;;;;23.52;4.25;;;;;;;8.76;97.45;102417.94;6195746;23;20005;-72
2022/10/07 00:59:57;;;;;;;18.90;3.85;;;;;;;8.70;97.73;102418.38;6196568;23;20008;-72
2022/10/07 01:02:24;;;;;;;22.15;4.07;;;;;;;8.67;97.97;102423.97;6196631;23;20004;-72
2022/10/07 01:04:51;;;;;;;24.00;4.63;;;;;;;8.73;98.15;102411.88;6196419;23;20019;-72
2022/10/07 01:07:20;;;;;;;17.05;4.43;;;;;;;8.77;97.58;102408.88;6195910;23;20012;-72
2022/10/07 01:09:49;;;;;;;29.73;3.70;;;;;;;8.77;97.61;102408.88;6194517;23;20033;-72
2022/10/07 01:12:45;;;;;;;35.17;4.15;;;;;;;8.78;97.35;102407.91;6194463;23;20001;-72
2022/10/07 01:15:37;;;;;;;16.98;3.75;;;;;;;8.65;97.92;102404.34;6194240;23;20032;-72
2022/10/07 01:18:19;;;;;;;25.05;3.60;;;;;;;8.63;97.75;102398.19;6182098;23;20013;-72
2022/10/07 01:21:03;;;;;;;18.48;3.95;;;;;;;8.60;98.22;102395.69;6194810;23;20015;-72
2022/10/07 01:23:47;;;;;;;23.08;4.63;;;;;;;8.67;98.21;102397.88;6194416;23;20012;-72
2022/10/07 01:26:46;;;;;;;25.63;4.25;;;;;;;8.48;98.70;102391.19;6195976;23;20008;-72
2022/10/07 01:29:21;;;;;;;18.17;3.72;;;;;;;8.64;97.98;102391.81;6194962;23;20008;-72
2022/10/07 01:31:55;;;;;;;30.60;4.40;;;;;;;8.55;98.37;102387.06;6194345;23;20001;-73
2022/10/07 01:34:25;;;;;;;21.08;4.97;;;;;;;8.60;98.27;102379.50;6194830;23;19997;-72
2022/10/07 01:36:54;;;;;;;27.55;4.63;;;;;;;8.50;98.56;102383.81;6194681;23;20016;-72
2022/10/07 01:39:26;;;;;;;22.65;4.10;;;;;;;8.45;98.75;102369.78;6195942;23;20012;-72
2022/10/07 01:41:53;;;;;;;23.08;4.45;;;;;;;8.37;99.36;102368.50;6194850;23;19997;-71
2022/10/07 01:44:18;;;;;;;34.05;5.50;;;;;;;8.40;99.58;102373.66;6194038;23;20017;-72
2022/10/07 01:46:44;;;;;;;36.05;4.78;;;;;;;8.48;99.19;102364.19;6194529;23;20016;-72
2022/10/07 01:49:09;;;;;;;24.05;4.85;;;;;;;8.49;98.68;102355.97;6194381;23;20035;-72
2022/10/07 01:51:38;;;;;;;23.85;4.32;;;;;;;8.49;98.75;102352.41;6195964;23;20075;-72
2022/10/07 01:54:23;;;;;;;20.48;4.07;;;;;;;8.52;99.03;102349.47;6194073;23;20004;-72
2022/10/07 01:56:48;;;;;;;27.45;4.45;;;;;;;8.40;99.11;102352.06;6193955;23;20036;-72
2022/10/07 01:59:39;;;;;;;16.17;4.47;;;;;;;8.50;98.65;102351.44;6193689;23;20029;-72
2022/10/07 02:02:20;;;;;;;20.40;4.63;;;;;;;8.47;98.90;102346.22;6193752;23;20005;-72
2022/10/07 02:05:02;;;;;;;29.25;4.50;;;;;;;8.47;99.07;102346.22;6192831;23;19997;-72
2022/10/07 02:07:43;;;;;;;30.00;4.90;;;;;;;8.39;99.41;102344.94;6195492;23;20008;-72
2022/10/07 02:10:37;;;;;;;21.95;4.18;;;;;;;8.33;99.78;102345.34;6194020;23;20037;-71
2022/10/07 02:13:08;;;;;;;23.27;4.45;;;;;;;8.39;99.73;102334.16;6193866;23;20063;-72
2022/10/07 02:16:01;;;;;;;27.73;4.88;;;;;;;8.45;99.28;102332.00;6193749;23;20001;-72
2022/10/07 02:18:30;;;;;;;23.52;4.75;;;;;;;8.45;98.86;102323.91;6194025;23;20062;-72
2022/10/07 02:20:57;;;;;;;24.13;4.95;;;;;;;8.35;99.23;102321.84;6195557;23;20013;-71
2022/10/07 02:23:24;;;;;;;22.52;4.53;;;;;;;8.27;99.87;102313.38;6194179;23;20008;-72
2022/10/07 02:25:52;;;;;;;23.10;5.22;;;;;;;8.27;99.26;102310.69;6193536;23;20029;-72
2022/10/07 02:28:22;;;;;;;29.75;6.50;;;;;;;8.28;99.28;102315.13;6194843;23;20000;-71
2022/10/07 02:30:52;;;;;;;22.58;4.97;;;;;;;8.20;99.76;102308.53;6193488;23;20048;-72
2022/10/07 02:33:20;;;;;;;29.75;5.53;;;;;;;8.30;99.13;102307.78;6195103;23;20001;-72
2022/10/07 02:35:53;;;;;;;26.77;5.30;;;;;;;8.19;99.24;102299.56;6193240;23;20005;-72
2022/10/07 02:38:20;;;;;;;20.10;5.20;;;;;;;8.12;99.98;102293.75;6193916;23;20004;-72
2022/10/07 02:40:51;;;;;;;27.85;5.90;;;;;;;8.03;100.00;102290.84;6194513;23;19997;-72
2022/10/07 02:43:38;;;;;;;28.88;5.30;;;;;;;8.06;100.00;102293.31;6193125;23;20075;-72
2022/10/07 02:46:12;;;;;;;31.05;5.25;;;;;;;8.01;100.00;102284.66;6195214;23;20100;-72
2022/10/07 02:48:43;;;;;;;22.13;4.72;;;;;;;8.01;100.00;102299.03;6194799;23;20404;-72
2022/10/07 02:51:17;;;;;;;24.83;6.05;;;;;;;7.98;100.00;102284.91;6195075;23;20009;-72
2022/10/07 02:53:48;;;;;;;27.73;4.82;;;;;;;8.06;100.00;102282.53;6193229;23;19997;-72
2022/10/07 02:56:15;;;;;;;35.63;4.93;;;;;;;7.93;100.00;102287.03;6193429;23;20146;-72
2022/10/07 02:58:44;;;;;;;21.67;5.05;;;;;;;8.00;100.00;102277.56;6192132;23;20095;-72
2022/10/07 03:01:16;;;;;;;21.23;5.78;;;;;;;7.96;100.00;102281.47;6194526;23;20005;-72
2022/10/07 03:03:43;;;;;;;21.80;5.28;;;;;;;7.99;100.00;102278.53;6194985;23;20001;-71
2022/10/07 03:06:10;;;;;;;31.55;5.63;;;;;;;7.85;100.00;102285.75;6193537;23;20080;-72
2022/10/07 03:08:36;;;;;;;24.23;6.03;;;;;;;7.84;100.00;102277.78;6194774;23;20008;-72
2022/10/07 03:11:01;;;;;;;26.35;5.97;;;;;;;7.91;100.00;102283.59;6193443;23;19997;-72
2022/10/07 03:13:26;;;;;;;26.42;6.15;;;;;;;7.94;100.00;102272.59;6193213;23;20004;-71
2022/10/07 03:15:52;;;;;;;24.30;6.50;;;;;;;7.93;100.00;102273.56;6193369;23;20013;-72
2022/10/07 03:18:26;;;;;;;23.55;5.65;;;;;;;7.86;100.00;102270.44;6194947;23;20011;-72
2022/10/07 03:20:56;;;;;;;22.70;4.93;;;;;;;7.86;100.00;102267.72;6195303;23;20024;-72
2022/10/07 03:23:27;;;;;;;30.38;5.28;;;;;;;7.93;100.00;102270.88;6193743;23;20316;-72
2022/10/07 03:25:55;;;;;;;26.73;4.70;;;;;;;7.85;100.00;102264.19;6194458;23;20024;-72
2022/10/07 03:28:23;;;;;;;30.95;5.93;;;;;;;7.93;100.00;102262.78;6193359;23;20005;-71
2022/10/07 03:30:49;;;;;;;17.70;4.80;;;;;;;7.93;99.74;102265.47;6194754;23;20005;-72
2022/10/07 03:33:16;;;;;;;28.88;6.60;;;;;;;7.91;99.44;102262.03;6193647;23;20004;-72
2022/10/07 03:35:41;;;;;;;20.30;5.45;;;;;;;7.84;100.00;102257.06;6194596;23;20004;-72
2022/10/07 03:38:07;;;;;;;22.25;4.95;;;;;;;7.73;100.00;102256.94;6193591;23;20008;-72
2022/10/07 03:40:37;;;;;;;29.30;5.93;;;;;;;7.66;100.00;102247.53;6193975;23;20028;-71
2022/10/07 03:43:03;;;;;;;17.80;5.13;;;;;;;7.77;100.00;102247.66;6195626;23;20013;-72
2022/10/07 03:45:29;;;;;;;23.00;5.22;;;;;;;7.60;100.00;102250.66;6193843;23;20002;-72
2022/10/07 03:47:55;;;;;;;22.75;5.00;;;;;;;7.65;100.00;102253.91;6195326;23;20424;-72
2022/10/07 03:50:22;;;;;;;29.20;5.68;;;;;;;7.58;100.00;102249.91;6195085;23;20015;-71
2022/10/07 03:52:47;;;;;;;19.00;5.32;;;;;;;7.58;100.00;102255.28;6194838;23;20035;-72
2022/10/07 03:55:12;;;;;;;32.42;6.00;;;;;;;7.63;100.00;102242.38;6192835;23;19997;-71
2022/10/07 03:57:50;;;;;;;19.73;5.30;;;;;;;7.55;100.00;102233.94;6192605;23;20040;-72
2022/10/07 04:00:17;;;;;;;23.60;5.70;;;;;;;7.54;100.00;102237.59;6194042;23;20027;-72
2022/10/07 04:02:42;;;;;;;31.92;5.53;;;;;;;7.46;100.00;102226.47;6194281;23;20309;-72
2022/10/07 04:05:09;;;;;;;18.40;5.28;;;;;;;7.51;100.00;102227.03;6194506;23;20004;-72
2022/10/07 04:07:34;;;;;;;21.40;5.68;;;;;;;7.50;100.00;102226.19;6192518;23;19997;-72
2022/10/07 04:09:59;;;;;;;29.90;5.95;;;;;;;7.50;100.00;102219.94;6193021;23;20063;-72
2022/10/07 04:12:25;;;;;;;18.60;5.28;;;;;;;7.60;100.00;102226.41;6194492;23;20009;-72
2022/10/07 04:14:50;;;;;;;22.33;5.38;;;;;;;7.60;100.00;102226.41;6193597;23;20047;-72
2022/10/07 04:17:20;;;;;;;26.75;5.45;;;;;;;7.65;100.00;102220.69;6192859;23;20372;-72
2022/10/07 04:19:46;;;;;;;25.92;5.38;;;;;;;7.70;100.00;102227.50;6193772;23;20001;-72
2022/10/07 04:22:11;;;;;;;23.67;5.30;;;;;;;7.85;99.56;102231.81;6194231;23;20027;-72
2022/10/07 04:24:36;;;;;;;28.85;5.72;;;;;;;7.71;99.77;102218.44;6196137;23;19993;-72
2022/10/07 04:27:04;;;;;;;25.25;5.25;;;;;;;7.65;99.72;102229.66;6195108;23;20348;-73
2022/10/07 04:29:30;;;;;;;22.02;5.47;;;;;;;7.75;99.97;102230.72;6195146;23;20001;-72
2022/10/07 04:31:57;;;;;;;22.80;5.07;;;;;;;7.54;100.00;102221.44;6196551;23;20004;-72
2022/10/07 04:34:23;;;;;;;29.30;6.45;;;;;;;7.54;100.00;102226.81;6195154;23;20061;-72
2022/10/07 04:36:51;;;;;;;29.25;6.35;;;;;;;7.63;99.91;102215.41;6195673;23;20012;-72
2022/10/07 04:39:16;;;;;;;23.80;5.40;;;;;;;7.50;100.00;102219.94;6195454;23;20001;-72
2022/10/07 04:41:42;;;;;;;22.25;6.00;;;;;;;7.50;100.00;102215.41;6195458;23;20052;-72
2022/10/07 04:44:08;;;;;;;31.17;4.50;;;;;;;7.55;100.00;102204.28;6197144;23;20001;-72
2022/10/07 04:46:33;;;;;;;27.20;6.00;;;;;;;7.42;100.00;102206.94;6195181;23;20064;-72
2022/10/07 04:48:59;;;;;;;35.08;6.30;;;;;;;7.39;100.00;102200.94;6196286;23;20008;-73
2022/10/07 04:51:24;;;;;;;37.03;6.20;;;;;;;7.55;100.00;102201.59;6197067;23;20028;-73
2022/10/07 04:53:51;;;;;;;26.30;5.80;;;;;;;7.42;100.00;102200.69;6197715;23;19996;-72
2022/10/07 04:56:18;;;;;;;23.75;5.95;;;;;;;7.47;99.98;102199.44;6197578;23;20050;-72
2022/10/07 04:58:44;;;;;;;26.33;5.45;;;;;;;7.44;100.00;102193.41;6188451;23;20013;-73
2022/10/07 05:01:10;;;;;;;27.50;6.47;;;;;;;7.42;100.00;102200.69;6195223;23;20011;-73
2022/10/07 05:03:39;;;;;;;38.15;5.65;;;;;;;7.33;100.00;102197.69;6169157;23;19993;-72
2022/10/07 05:06:06;;;;;;;31.45;5.70;;;;;;;7.46;100.00;102191.44;6169370;23;20093;-71
2022/10/07 05:08:32;;;;;;;18.15;4.30;;;;;;;7.54;99.60;102194.47;6194064;23;20043;-72
2022/10/07 05:10:59;;;;;;;26.98;5.15;;;;;;;7.41;100.00;102191.75;6194980;23;20005;-72
2022/10/07 05:13:25;;;;;;;27.70;5.50;;;;;;;7.44;100.00;102193.41;6195833;23;20004;-73
2022/10/07 05:15:53;;;;;;;28.77;5.20;;;;;;;7.38;100.00;102194.69;6169660;23;20012;-72
2022/10/07 05:18:19;;;;;;;31.40;6.43;;;;;;;7.31;100.00;102205.00;6170105;23;19997;-73
2022/10/07 05:20:46;;;;;;;30.80;6.32;;;;;;;7.27;100.00;102192.72;6170154;23;19997;-73
2022/10/07 05:23:16;;;;;;;23.85;5.40;;;;;;;7.30;100.00;102192.50;6168782;23;20009;-74
2022/10/07 05:25:42;;;;;;;21.55;6.53;;;;;;;7.25;100.00;102189.25;6169149;23;19997;-74
2022/10/07 05:28:10;;;;;;;25.50;5.07;;;;;;;7.30;100.00;102191.63;6169223;23;20015;-73
2022/10/07 05:30:36;;;;;;;33.15;5.35;;;;;;;7.41;100.00;102185.50;6193985;23;19997;-72
2022/10/07 05:33:02;;;;;;;26.88;5.63;;;;;;;7.35;100.00;102184.97;6168858;23;19997;-71
2022/10/07 05:35:27;;;;;;;30.25;5.88;;;;;;;7.42;100.00;102184.53;6168161;23;20059;-73
2022/10/07 05:37:53;;;;;;;21.52;5.72;;;;;;;7.58;99.07;102185.22;6194397;23;20131;-73
2022/10/07 05:40:19;;;;;;;21.83;6.43;;;;;;;7.45;99.73;102178.94;6168631;23;20023;-73
2022/10/07 05:42:45;;;;;;;45.90;6.68;;;;;;;7.26;100.00;102180.22;6195104;23;20135;-73
2022/10/07 05:45:10;;;;;;;27.33;5.10;;;;;;;7.44;100.00;102177.22;6168989;23;20052;-73
2022/10/07 05:47:36;;;;;;;20.13;5.55;;;;;;;7.37;99.83;102175.91;6168479;23;20001;-72
2022/10/07 05:50:01;;;;;;;25.20;4.70;;;;;;;7.29;100.00;102174.59;6193596;23;20016;-73
2022/10/07 05:52:27;;;;;;;24.90;5.93;;;;;;;7.27;100.00;102171.16;6168485;23;20001;-73
2022/10/07 05:54:53;;;;;;;28.17;5.80;;;;;;;7.25;100.00;102172.25;6167889;23;20005;-74
2022/10/07 05:57:18;;;;;;;32.28;4.85;;;;;;;7.18;100.00;102171.78;6168694;23;20007;-73
2022/10/07 05:59:45;;;;;;;25.98;4.90;;;;;;;7.37;100.00;102175.91;6163435;23;20016;-73
2022/10/07 06:02:15;;;;;;;23.60;5.20;;;;;;;7.32;100.00;102174.41;6163988;23;20002;-74
2022/10/07 06:04:42;;;;;;;23.30;6.30;;;;;;;7.48;100.00;102178.72;6165154;23;20511;-74
2022/10/07 06:07:10;;;;;;;29.67;5.18;;;;;;;7.48;99.91;102178.72;6165234;23;20031;-74
2022/10/07 06:15:05;;;;;;;33.42;4.78;;;;;;;7.73;98.86;102173.34;6164813;23;20009;-74
2022/10/07 06:17:31;;;;;;;34.15;5.20;;;;;;;7.72;98.91;102177.03;6163599;23;20008;-74
2022/10/07 06:19:56;;;;;;;27.98;4.50;;;;;;;7.65;98.74;102173.03;6164114;23;19997;-75
2022/10/07 06:22:22;;;;;;;32.00;5.00;;;;;;;7.71;98.58;102175.31;6165436;23;20080;-73
2022/10/07 06:24:50;;;;;;;16.30;4.45;;;;;;;7.66;99.15;102169.38;6163893;23;20451;-73
2022/10/07 06:27:16;;;;;;;23.48;4.82;;;;;;;7.65;99.32;102170.34;6163911;23;20043;-72
2022/10/07 06:29:42;;;;;;;26.38;4.90;;;;;;;7.81;99.05;102170.97;6163665;23;20005;-72
2022/10/07 06:32:07;;;;;;;21.73;5.03;;;;;;;7.88;98.44;102161.47;6163859;23;20012;-68
2022/10/07 06:34:32;;;;;;;17.65;4.22;;;;;;;8.02;97.78;102162.31;6164015;23;20013;-68
2022/10/07 06:36:58;;;;;;;35.00;5.57;;;;;;;8.04;97.50;102165.78;6162461;23;20005;-69
2022/10/07 06:39:23;;;;;;;23.55;4.25;;;;;;;8.10;97.77;102168.03;6162262;23;20002;-68
2022/10/07 06:41:51;;;;;;;23.55;4.80;;;;;;;8.12;97.35;102163.41;6162556;23;20008;-69
2022/10/07 06:44:16;;;;;;;22.02;4.55;;;;;;;8.34;97.00;102168.94;6187464;23;19997;-69
2022/10/07 06:46:41;;;;;;;25.52;4.90;;;;;;;8.47;96.18;102162.69;6162281;23;20056;-69
2022/10/07 06:49:07;;;;;;;25.85;5.13;;;;;;;8.57;95.83;102169.13;6162676;23;19997;-69
2022/10/07 06:51:32;;;;;;;28.10;4.38;;;;;;;8.61;95.57;102165.25;6187137;23;19997;-68
2022/10/07 06:53:58;;;;;;;34.20;4.72;;;;;;;8.71;95.36;102163.56;6162588;23;20025;-68
2022/10/07 06:56:24;;;;;;;16.05;4.43;;;;;;;8.86;94.43;102165.13;6153496;23;20044;-68
2022/10/07 06:58:49;;;;;;;38.10;5.05;;;;;;;8.95;94.58;102156.34;6171149;23;20021;-67
2022/10/07 07:01:15;;;;;;;30.55;4.72;;;;;;;9.07;93.44;102156.38;6149690;23;20024;-68
2022/10/07 07:03:41;;;;;;;21.15;4.10;;;;;;;9.13;93.28;102147.81;6149970;23;20005;-67
2022/10/07 07:06:07;;;;;;;19.73;4.13;;;;;;;9.22;93.12;102152.50;6179912;23;20459;-69
2022/10/07 07:08:34;;;;;;;18.77;4.25;;;;;;;9.30;92.46;102158.16;6151819;23;20032;-68
2022/10/07 07:13:56;;;;;;;17.48;3.92;;;;;;;9.58;91.10;102156.00;6154329;23;20076;-69
2022/10/07 07:16:23;;;;;;;20.55;4.30;;;;;;;9.62;90.71;102147.53;6154069;23;20027;-69
2022/10/07 07:18:52;;;;;;;13.25;3.58;;;;;;;9.69;91.07;102147.91;6178395;23;20055;-67
2022/10/07 07:21:18;;;;;;;27.17;3.88;;;;;;;9.73;90.29;102149.41;6154739;23;20093;-67
2022/10/07 07:23:44;;;;;;;19.48;4.15;;;;;;;9.77;90.60;102156.28;6152823;23;20429;-69
2022/10/07 07:26:10;;;;;;;25.65;4.32;;;;;;;10.03;88.87;102146.94;6179162;23;19997;-68
2022/10/07 07:28:36;;;;;;;23.83;3.78;;;;;;;10.16;89.13;102151.38;6118810;23;20085;-69
2022/10/07 07:31:09;;;;;;;20.73;4.43;;;;;;;10.31;88.03;102144.75;6153804;23;20047;-69
2022/10/07 07:33:39;;;;;;;20.83;4.72;;;;;;;10.19;88.06;102140.31;6178168;23;20025;-68
2022/10/07 07:36:15;;;;;;;23.73;4.10;;;;;;;10.46;87.57;102138.06;6154022;23;20009;-68
2022/10/07 07:38:55;;;;;;;25.30;3.95;;;;;;;10.64;87.29;102140.25;6178607;23;20001;-69
2022/10/07 07:41:24;;;;;;;20.77;4.05;;;;;;;10.67;86.04;102145.41;6155105;23;20067;-70
2022/10/07 07:43:52;;;;;;;20.50;5.00;;;;;;;10.70;86.17;102145.16;6177755;23;20006;-67
2022/10/07 07:46:19;;;;;;;24.05;4.85;;;;;;;10.83;85.55;102140.44;6152867;23;20001;-68
2022/10/07 07:48:45;;;;;;;16.58;3.63;;;;;;;10.95;85.55;102139.38;6154420;23;20392;-68
2022/10/07 07:51:12;;;;;;;20.40;4.00;;;;;;;11.16;84.60;102128.59;6153466;23;20001;-70
2022/10/07 07:53:38;;;;;;;24.98;4.13;;;;;;;10.96;85.09;102130.28;6153146;23;20005;-68
2022/10/07 07:56:03;;;;;;;31.38;4.43;;;;;;;11.04;84.56;102127.78;6179201;23;20012;-69
2022/10/07 07:58:29;;;;;;;27.85;4.25;;;;;;;11.11;84.24;102123.56;6153207;23;20005;-70
2022/10/07 08:01:09;;;;;;;26.77;4.22;;;;;;;11.41;83.54;102128.19;6155729;23;20088;-69
2022/10/07 08:03:36;;;;;;;21.05;3.92;;;;;;;11.49;82.60;102122.09;6155797;23;20005;-69
2022/10/07 08:06:06;;;;;;;15.73;3.92;;;;;;;11.71;83.49;102114.78;6155731;23;20464;-70
2022/10/07 08:08:33;;;;;;;25.75;4.38;;;;;;;11.93;81.63;102115.50;6154375;23;20059;-69
2022/10/07 08:11:13;;;;;;;24.58;4.20;;;;;;;12.12;82.19;102109.25;6155451;23;19997;-69
2022/10/07 08:13:40;;;;;;;19.38;3.85;;;;;;;11.98;80.77;102106.94;6154266;23;20002;-69
2022/10/07 08:16:11;;;;;;;19.20;3.97;;;;;;;11.89;82.33;102097.78;6156134;23;20024;-70
2022/10/07 08:18:38;;;;;;;22.25;3.83;;;;;;;11.86;81.88;102114.31;6179908;23;20117;-69
2022/10/07 08:21:04;;;;;;;24.00;3.63;;;;;;;12.10;80.36;102105.84;6155078;23;20009;-69
2022/10/07 08:23:30;;;;;;;23.58;3.75;;;;;;;12.38;80.68;102097.91;6156256;23;20001;-70
2022/10/07 08:25:57;;;;;;;16.13;3.38;;;;;;;12.64;80.21;102096.34;6155764;23;20054;-68
2022/10/07 08:28:23;;;;;;;15.82;3.72;;;;;;;12.64;79.12;102085.50;6154596;23;20403;-68
2022/10/07 08:30:50;;;;;;;33.20;4.45;;;;;;;12.98;78.81;102095.97;6156749;23;20072;-70
2022/10/07 08:33:16;;;;;;;21.25;3.33;;;;;;;13.42;77.07;102090.88;6169131;23;20032;-70
2022/10/07 08:35:42;;;;;;;21.25;3.65;;;;;;;13.60;75.82;102080.97;6155296;23;20006;-68
2022/10/07 08:38:08;;;;;;;22.27;4.68;;;;;;;13.62;76.71;102087.09;6154896;23;20415;-71
2022/10/07 08:40:35;;;;;;;22.50;3.90;;;;;;;13.95;75.22;102084.81;6178998;23;20001;-69
2022/10/07 08:43:02;;;;;;;15.00;3.10;;;;;;;14.40;73.75;102080.25;6155514;23;20009;-67
2022/10/07 08:45:32;;;;;;;23.23;4.55;;;;;;;13.58;74.49;102078.41;6180618;23;20028;-69
2022/10/07 08:48:03;;;;;;;20.95;3.92;;;;;;;13.46;76.82;102073.28;6153883;23;20001;-69
2022/10/07 08:50:41;;;;;;;21.50;3.72;;;;;;;13.85;75.42;102074.00;6155066;23;19998;-70
2022/10/07 08:53:11;;;;;;;25.55;3.70;;;;;;;13.71;76.03;102071.75;6154145;23;20001;-68
2022/10/07 08:55:54;;;;;;;20.30;3.97;;;;;;;14.20;75.03;102067.78;6155606;23;19998;-69
2022/10/07 08:58:47;;;;;;;29.23;4.10;;;;;;;14.10;74.96;102064.25;6153876;23;20092;-68
2022/10/07 09:01:31;;;;;;;20.00;3.60;;;;;;;14.46;73.62;102056.13;6154883;23;20012;-69
2022/10/07 09:04:12;;;;;;;15.25;3.92;;;;;;;14.95;72.56;102056.63;6155803;23;20085;-69
2022/10/07 09:06:57;;;;;;;19.92;3.63;;;;;;;14.60;72.77;102056.47;6153833;23;20082;-70
2022/10/07 09:09:45;;;;;;;24.75;4.07;;;;;;;15.25;71.67;102047.13;6128744;23;20088;-68
2022/10/07 09:12:35;;;;;;;23.70;4.15;;;;;;;15.05;71.64;102046.47;6129058;23;20005;-69
2022/10/07 09:15:04;;;;;;;19.75;3.78;;;;;;;15.25;71.39;102047.97;6131753;23;20009;-72
2022/10/07 09:17:36;;;;;;;18.60;3.88;;;;;;;15.45;70.60;102038.56;6129136;23;20023;-70
2022/10/07 09:20:15;;;;;;;25.08;3.83;;;;;;;15.76;69.94;102046.25;6128748;23;20005;-70
2022/10/07 09:22:44;;;;;;;24.02;3.72;;;;;;;15.58;69.88;102031.78;6154191;23;20487;-70
2022/10/07 09:25:22;;;;;;;35.42;3.60;;;;;;;15.66;70.13;102023.69;6130062;23;20004;-69
2022/10/07 09:27:49;;;;;;;21.52;3.78;;;;;;;16.12;69.76;102018.75;6129626;23;20005;-69
2022/10/07 09:30:15;;;;;;;22.92;4.15;;;;;;;15.94;68.58;102014.25;6130802;23;20001;-70
2022/10/07 09:32:44;;;;;;;17.38;3.45;;;;;;;16.19;69.00;102006.97;6128467;23;20004;-70
2022/10/07 09:35:20;;;;;;;20.73;4.07;;;;;;;16.35;68.23;102013.50;6130362;23;20080;-70
2022/10/07 09:38:06;;;;;;;21.10;4.32;;;;;;;15.91;68.17;102011.84;6129709;23;20088;-68
2022/10/07 09:43:30;;;;;;;21.90;3.50;;;;;;;15.69;68.27;102001.50;6157348;23;20436;-70
2022/10/07 09:45:57;;;;;;;21.15;3.22;;;;;;;16.04;67.71;102007.78;6129866;23;20005;-70
2022/10/07 09:48:27;;;;;;;25.63;3.53;;;;;;;15.87;67.50;102005.00;6129417;23;20005;-68
2022/10/07 09:51:15;;;;;;;26.55;3.28;;;;;;;15.63;68.73;102004.91;6130555;23;20060;-69
2022/10/07 09:53:53;;;;;;;15.73;3.20;;;;;;;15.47;68.80;102003.78;6129433;23;20032;-69
2022/10/07 09:56:36;;;;;;;25.23;3.65;;;;;;;15.26;68.81;101992.41;6154663;23;20002;-69
2022/10/07 09:59:23;;;;;;;23.40;3.70;;;;;;;15.37;68.83;101994.84;6135715;23;20005;-70
2022/10/07 10:02:11;;;;;;;17.73;3.10;;;;;;;15.65;68.54;101983.78;6153552;23;20001;-69
2022/10/07 10:04:45;;;;;;;21.73;3.80;;;;;;;16.06;67.60;101976.53;6179356;23;20064;-70
2022/10/07 10:07:23;;;;;;;20.70;3.80;;;;;;;16.26;67.83;101988.03;6179431;23;20397;-70
2022/10/07 10:09:51;;;;;;;18.30;3.83;;;;;;;16.14;66.93;101978.44;6156855;23;20005;-70
2022/10/07 10:12:18;;;;;;;23.98;4.50;;;;;;;15.90;67.56;101971.88;6153742;23;20032;-70
2022/10/07 10:14:52;;;;;;;25.33;4.20;;;;;;;15.96;67.74;101976.69;6153526;23;20004;-70
2022/10/07 10:17:37;;;;;;;22.67;3.60;;;;;;;15.90;68.27;101971.88;6154578;23;20002;-68
2022/10/07 10:20:30;;;;;;;26.50;3.78;;;;;;;15.56;69.18;101979.25;6154222;23;20001;-69
2022/10/07 10:22:58;;;;;;;24.73;3.92;;;;;;;15.90;68.39;101960.94;6155274;23;20001;-70
2022/10/07 10:28:38;;;;;;;24.70;3.92;;;;;;;16.47;66.64;101966.53;6154355;23;20437;-70
2022/10/07 10:31:24;;;;;;;20.58;4.18;;;;;;;15.85;68.15;101959.78;6177805;23;20006;-71
2022/10/07 10:34:02;;;;;;;18.98;3.10;;;;;;;16.11;67.68;101951.47;6153487;23;20017;-69
2022/10/07 10:36:31;;;;;;;14.80;3.03;;;;;;;15.92;68.08;101955.34;6154820;23;20009;-70
2022/10/07 10:39:36;;;;;;;26.38;4.35;;;;;;;15.80;68.37;101949.34;6179230;23;20005;-70
2022/10/07 10:42:10;;;;;;;19.70;3.05;;;;;;;15.84;68.72;101939.75;6093235;23;20054;-69
2022/10/07 10:44:49;;;;;;;14.50;3.33;;;;;;;15.80;68.66;101938.41;6141668;23;20305;-70
2022/10/07 10:47:24;;;;;;;24.67;3.88;;;;;;;15.85;68.74;101936.03;6178771;23;20009;-69
2022/10/07 10:50:23;;;;;;;24.90;3.00;;;;;;;16.37;68.15;101930.31;6154624;23;20002;-70
2022/10/07 10:53:23;;;;;;;14.10;3.15;;;;;;;16.73;66.61;101924.50;6156477;23;20096;-70
2022/10/07 10:56:04;;;;;;;19.27;3.17;;;;;;;16.48;66.90;101916.28;6154484;23;20021;-71
2022/10/07 10:58:58;;;;;;;34.85;4.13;;;;;;;16.39;67.39;101917.31;6153815;23;20001;-71
2022/10/07 11:01:36;;;;;;;17.27;3.70;;;;;;;16.75;67.08;101911.50;6155120;23;20012;-71
2022/10/07 11:04:20;;;;;;;33.83;3.55;;;;;;;16.31;67.80;101930.13;6154336;23;19997;-70
2022/10/07 11:07:00;;;;;;;21.05;3.90;;;;;;;16.66;67.28;101907.03;6153785;23;20016;-70
2022/10/07 11:09:55;;;;;;;20.55;3.85;;;;;;;17.03;65.81;101931.97;6153171;23;20076;-72
2022/10/07 11:12:32;;;;;;;27.48;3.22;;;;;;;16.74;66.37;101912.53;6117629;23;20068;-70
2022/10/07 11:15:06;;;;;;;24.27;3.88;;;;;;;16.37;67.53;101902.13;6155139;23;20005;-70
2022/10/07 11:17:36;;;;;;;20.52;3.45;;;;;;;16.66;65.95;101891.47;6178731;23;20079;-70
2022/10/07 11:20:17;;;;;;;24.95;3.90;;;;;;;16.73;66.01;101886.22;6153948;23;20029;-70
2022/10/07 11:23:12;;;;;;;13.80;2.97;;;;;;;17.05;64.89;101886.13;6154251;23;20016;-70
2022/10/07 11:25:46;;;;;;;23.67;3.45;;;;;;;16.60;65.99;101881.25;6141257;23;20078;-70
2022/10/07 11:28:20;;;;;;;25.15;3.67;;;;;;;16.44;66.88;101882.13;6154500;23;20071;-71
2022/10/07 11:31:00;;;;;;;18.20;3.30;;;;;;;17.01;65.58;101873.81;6154913;23;20006;-72
2022/10/07 11:33:36;;;;;;;26.48;3.42;;;;;;;16.89;65.17;101875.25;6155788;23;20444;-70
2022/10/07 11:36:11;;;;;;;20.88;3.22;;;;;;;16.72;65.80;101868.09;6155054;23;20037;-71
2022/10/07 11:38:37;;;;;;;15.43;3.10;;;;;;;16.95;65.16;101885.50;6180148;23;20002;-70
2022/10/07 11:41:13;;;;;;;18.83;4.57;;;;;;;16.84;66.07;101866.72;6153465;23;20096;-70
2022/10/07 11:43:45;;;;;;;22.42;3.55;;;;;;;17.27;64.89;101857.13;6178096;23;19998;-70
2022/10/07 11:46:27;;;;;;;18.77;3.00;;;;;;;17.02;64.84;101853.66;6153200;23;20013;-69
2022/10/07 11:49:11;;;;;;;18.23;3.30;;;;;;;17.17;64.92;101855.66;6178271;23;20005;-72
2022/10/07 11:51:49;;;;;;;14.40;3.63;;;;;;;17.03;64.59;101849.88;6178983;23;20005;-70